createdAt,value
2023-05-11T00:01:23.731Z,99.90
2023-05-11T00:03:50.573Z,99.90
2023-05-11T00:06:17.347Z,99.90
2023-05-11T00:08:43.997Z,99.90
2023-05-11T00:11:10.768Z,99.90
2023-05-11T00:13:37.744Z,99.90
2023-05-11T00:16:04.869Z,99.90
2023-05-11T00:18:31.798Z,99.90
2023-05-11T00:20:58.938Z,99.90
2023-05-11T00:23:25.900Z,99.90
2023-05-11T00:25:52.638Z,99.90
2023-05-11T00:28:19.358Z,99.90
2023-05-11T00:30:46.065Z,99.90
2023-05-11T00:33:12.771Z,99.90
2023-05-11T00:35:39.547Z,99.90
2023-05-11T00:38:06.386Z,99.90
2023-05-11T00:40:33.272Z,99.90
2023-05-11T00:42:59.949Z,99.90
2023-05-11T00:45:26.799Z,99.90
2023-05-11T00:47:53.677Z,99.90
2023-05-11T00:50:20.742Z,99.90
2023-05-11T00:52:47.562Z,99.90
2023-05-11T00:55:14.284Z,99.90
2023-05-11T00:57:41.036Z,99.90
2023-05-11T01:00:08.306Z,99.90
2023-05-11T01:02:35.106Z,99.90
2023-05-11T01:05:01.976Z,99.90
2023-05-11T01:07:49.880Z,99.90
2023-05-11T01:10:34.800Z,99.90
2023-05-11T01:13:13.831Z,99.90
2023-05-11T01:15:48.174Z,99.90
2023-05-11T01:18:26.189Z,99.90
2023-05-11T01:20:56.989Z,99.90
2023-05-11T01:23:35.980Z,99.90
2023-05-11T01:26:17.241Z,99.90
2023-05-11T01:29:08.942Z,99.90
2023-05-11T01:31:35.683Z,99.90
2023-05-11T01:34:05.015Z,99.90
2023-05-11T01:36:36.263Z,99.90
2023-05-11T01:39:05.523Z,99.90
2023-05-11T01:41:32.454Z,99.90
2023-05-11T01:44:00.985Z,99.90
2023-05-11T01:46:28.360Z,99.90
2023-05-11T01:48:56.184Z,99.90
2023-05-11T01:51:26.353Z,99.90
2023-05-11T01:53:53.356Z,99.90
2023-05-11T01:56:21.403Z,99.90
2023-05-11T01:58:48.114Z,99.90
2023-05-11T02:01:14.917Z,99.90
2023-05-11T02:03:41.815Z,99.90
2023-05-11T02:06:09.146Z,99.90
2023-05-11T02:08:36.046Z,99.90
2023-05-11T02:11:03.094Z,99.90
2023-05-11T02:13:29.897Z,99.90
2023-05-11T02:15:57.027Z,99.90
2023-05-11T02:18:24.479Z,99.90
2023-05-11T02:20:51.762Z,99.90
2023-05-11T02:23:18.457Z,99.90
2023-05-11T02:25:45.147Z,99.90
2023-05-11T02:28:11.812Z,99.90
2023-05-11T02:30:47.223Z,99.90
2023-05-11T02:33:33.187Z,99.90
2023-05-11T02:35:59.897Z,99.90
2023-05-11T02:38:33.288Z,99.90
2023-05-11T02:41:06.033Z,99.90
2023-05-11T02:43:35.209Z,99.90
2023-05-11T02:46:06.839Z,99.90
2023-05-11T02:48:38.912Z,99.90
2023-05-11T02:51:07.292Z,99.90
2023-05-11T02:53:33.975Z,99.90
2023-05-11T02:56:00.860Z,99.90
2023-05-11T02:58:27.624Z,99.90
2023-05-11T03:00:54.466Z,99.90
2023-05-11T03:03:21.241Z,99.90
2023-05-11T03:05:48.094Z,99.90
2023-05-11T03:08:14.789Z,99.90
2023-05-11T03:10:41.490Z,99.90
2023-05-11T03:13:08.254Z,99.90
2023-05-11T03:15:34.971Z,99.90
2023-05-11T03:18:01.736Z,99.90
2023-05-11T03:20:28.490Z,99.90
2023-05-11T03:22:55.560Z,99.90
2023-05-11T03:25:22.309Z,99.90
2023-05-11T03:27:48.971Z,99.90
2023-05-11T03:30:15.934Z,99.90
2023-05-11T03:32:42.735Z,99.90
2023-05-11T03:35:09.818Z,99.90
2023-05-11T03:37:38.078Z,99.90
2023-05-11T03:40:05.201Z,99.90
2023-05-11T03:42:31.964Z,99.90
2023-05-11T03:44:59.800Z,99.90
2023-05-11T03:47:27.533Z,99.90
2023-05-11T03:49:55.697Z,99.90
2023-05-11T03:52:22.551Z,99.90
2023-05-11T03:54:49.209Z,99.90
2023-05-11T03:57:15.934Z,99.90
2023-05-11T03:59:42.672Z,99.90
2023-05-11T04:02:09.437Z,99.90
2023-05-11T04:04:36.161Z,99.90
2023-05-11T04:07:02.942Z,99.90
2023-05-11T04:09:29.607Z,99.90
2023-05-11T04:11:56.325Z,99.90
2023-05-11T04:14:23.031Z,99.90
2023-05-11T04:16:49.770Z,99.90
2023-05-11T04:19:16.795Z,99.90
2023-05-11T04:21:43.825Z,99.90
2023-05-11T04:24:10.526Z,99.90
2023-05-11T04:26:37.185Z,99.90
2023-05-11T04:29:04.999Z,99.90
2023-05-11T04:31:31.815Z,99.90
2023-05-11T04:33:58.497Z,99.90
2023-05-11T04:36:25.301Z,99.90
2023-05-11T04:38:53.190Z,99.90
2023-05-11T04:41:19.965Z,99.90
2023-05-11T04:43:46.616Z,99.90
2023-05-11T04:46:13.439Z,99.90
2023-05-11T04:48:40.374Z,99.90
2023-05-11T04:51:07.290Z,99.90
2023-05-11T04:53:33.990Z,99.90
2023-05-11T04:56:00.772Z,99.90
2023-05-11T04:58:27.512Z,99.90
2023-05-11T05:00:54.239Z,99.90
2023-05-11T05:03:21.023Z,99.90
2023-05-11T05:05:47.780Z,99.90
2023-05-11T05:08:14.583Z,99.90
2023-05-11T05:10:41.224Z,99.90
2023-05-11T05:13:07.949Z,99.90
2023-05-11T05:15:34.603Z,99.90
2023-05-11T05:18:01.286Z,99.90
2023-05-11T05:20:28.458Z,99.90
2023-05-11T05:22:55.513Z,99.90
2023-05-11T05:25:22.328Z,99.90
2023-05-11T05:27:49.118Z,99.90
2023-05-11T05:30:16.169Z,99.90
2023-05-11T05:32:43.021Z,99.90
2023-05-11T05:35:09.831Z,99.90
2023-05-11T05:37:37.593Z,99.90
2023-05-11T05:40:05.573Z,99.90
2023-05-11T05:42:32.431Z,99.90
2023-05-11T05:44:59.139Z,99.90
2023-05-11T05:47:25.851Z,99.90
2023-05-11T05:49:52.601Z,99.90
2023-05-11T05:52:19.786Z,99.90
2023-05-11T05:54:46.550Z,99.90
2023-05-11T05:57:15.543Z,99.90
2023-05-11T05:59:42.519Z,99.90
2023-05-11T06:02:09.413Z,99.90
2023-05-11T06:04:36.199Z,99.90
2023-05-11T06:07:03.172Z,99.90
2023-05-11T06:09:29.958Z,99.90
2023-05-11T06:11:57.413Z,99.90
2023-05-11T06:14:24.104Z,99.90
2023-05-11T06:16:50.939Z,99.90
2023-05-11T06:19:17.626Z,99.90
2023-05-11T06:21:46.066Z,99.90
2023-05-11T06:24:12.863Z,99.90
2023-05-11T06:26:41.072Z,99.90
2023-05-11T06:29:08.133Z,99.90
2023-05-11T06:31:34.906Z,99.90
2023-05-11T06:34:01.718Z,99.90
2023-05-11T06:36:28.703Z,99.90
2023-05-11T06:38:56.284Z,99.90
2023-05-11T06:41:23.230Z,99.90
2023-05-11T06:43:50.235Z,99.90
2023-05-11T06:46:17.948Z,99.90
2023-05-11T06:48:44.886Z,99.90
2023-05-11T06:51:12.047Z,99.90
2023-05-11T06:53:39.201Z,99.90
2023-05-11T06:56:06.381Z,99.90
2023-05-11T06:58:33.115Z,99.90
2023-05-11T07:00:59.854Z,99.90
2023-05-11T07:03:26.735Z,99.90
2023-05-11T07:05:53.627Z,99.90
2023-05-11T07:08:20.571Z,99.90
2023-05-11T07:10:47.383Z,99.90
2023-05-11T07:13:14.474Z,99.90
2023-05-11T07:15:41.544Z,99.90
2023-05-11T07:18:08.329Z,99.90
2023-05-11T07:20:39.410Z,99.90
2023-05-11T07:23:06.098Z,99.90
2023-05-11T07:25:34.132Z,99.90
2023-05-11T07:28:00.909Z,99.90
2023-05-11T07:30:27.733Z,99.90
2023-05-11T07:32:56.533Z,99.90
2023-05-11T07:35:24.155Z,99.90
2023-05-11T07:37:51.096Z,99.90
2023-05-11T07:40:18.058Z,99.90
2023-05-11T07:42:45.038Z,99.90
2023-05-11T07:45:12.021Z,99.90
2023-05-11T07:47:38.883Z,99.90
2023-05-11T07:50:06.326Z,99.90
2023-05-11T07:52:33.010Z,99.90
2023-05-11T07:54:59.850Z,99.90
2023-05-11T07:57:27.399Z,99.90
2023-05-11T07:59:54.087Z,99.90
2023-05-11T08:02:20.788Z,99.90
2023-05-11T08:04:47.482Z,99.90
2023-05-11T08:07:14.288Z,99.90
2023-05-11T08:09:41.030Z,99.90
2023-05-11T08:12:07.870Z,99.90
2023-05-11T08:14:34.842Z,99.90
2023-05-11T08:17:01.563Z,99.90
2023-05-11T08:19:28.296Z,99.90
2023-05-11T08:21:55.336Z,99.90
2023-05-11T08:24:22.093Z,99.90
2023-05-11T08:26:49.024Z,99.90
2023-05-11T08:29:15.681Z,99.90
2023-05-11T08:31:42.558Z,99.90
2023-05-11T08:34:18.493Z,99.90
2023-05-11T08:36:46.867Z,99.90
2023-05-11T08:39:13.674Z,99.90
2023-05-11T08:41:40.414Z,99.90
2023-05-11T08:44:07.798Z,99.90
2023-05-11T08:46:36.008Z,99.90
2023-05-11T08:49:02.705Z,99.90
2023-05-11T08:51:29.380Z,99.90
2023-05-11T08:53:57.675Z,99.90
2023-05-11T08:56:24.376Z,99.90
2023-05-11T08:58:51.820Z,99.90
2023-05-11T09:01:19.443Z,99.90
2023-05-11T09:03:46.725Z,99.90
2023-05-11T09:06:13.503Z,99.90
2023-05-11T09:08:40.149Z,99.90
2023-05-11T09:11:06.945Z,99.90
2023-05-11T09:13:33.969Z,99.90
2023-05-11T09:16:00.741Z,99.90
2023-05-11T09:18:27.770Z,99.90
2023-05-11T09:20:54.697Z,99.90
2023-05-11T09:23:26.427Z,99.90
2023-05-11T09:25:53.610Z,99.90
2023-05-11T09:28:27.248Z,99.90
2023-05-11T09:30:56.179Z,99.90
2023-05-11T09:33:24.324Z,99.90
2023-05-11T09:35:51.262Z,99.90
2023-05-11T09:38:19.936Z,99.90
2023-05-11T09:40:54.423Z,99.90
2023-05-11T09:43:28.650Z,99.90
2023-05-11T09:45:56.783Z,99.90
2023-05-11T09:48:31.672Z,99.90
2023-05-11T09:51:06.038Z,99.90
2023-05-11T09:53:46.230Z,99.90
2023-05-11T09:56:13.670Z,99.90
2023-05-11T09:58:54.938Z,99.90
2023-05-11T10:01:32.887Z,99.90
2023-05-11T10:04:13.890Z,99.90
2023-05-11T10:06:53.513Z,99.90
2023-05-11T10:09:24.450Z,99.90
2023-05-11T10:11:51.323Z,99.90
2023-05-11T10:14:18.093Z,99.90
2023-05-11T10:16:44.853Z,99.90
2023-05-11T10:19:12.544Z,99.90
2023-05-11T10:21:39.395Z,99.90
2023-05-11T10:24:06.857Z,99.90
2023-05-11T10:26:33.747Z,99.90
2023-05-11T10:29:01.304Z,99.90
2023-05-11T10:31:28.942Z,99.90
2023-05-11T10:33:57.211Z,99.90
2023-05-11T10:36:24.332Z,99.90
2023-05-11T10:38:51.088Z,99.90
2023-05-11T10:41:41.879Z,99.90
2023-05-11T10:44:20.958Z,99.90
2023-05-11T10:47:12.837Z,99.90
2023-05-11T10:49:58.186Z,99.90
2023-05-11T10:52:47.283Z,99.90
2023-05-11T10:55:20.603Z,99.90
2023-05-11T10:57:52.169Z,99.90
2023-05-11T11:00:56.799Z,99.90
2023-05-11T11:03:23.800Z,99.90
2023-05-11T11:05:50.804Z,99.90
2023-05-11T11:08:17.577Z,99.90
2023-05-11T11:10:46.384Z,99.90
2023-05-11T11:13:14.153Z,99.90
2023-05-11T11:15:56.891Z,99.90
2023-05-11T11:18:27.221Z,99.90
2023-05-11T11:20:55.187Z,99.90
2023-05-11T11:23:40.493Z,99.90
2023-05-11T11:26:10.300Z,99.90
2023-05-11T11:28:57.203Z,99.90
2023-05-11T11:31:34.205Z,99.90
2023-05-11T11:34:29.176Z,99.90
2023-05-11T11:36:56.047Z,99.90
2023-05-11T11:39:23.142Z,99.90
2023-05-11T11:42:06.691Z,99.90
2023-05-11T11:44:34.467Z,99.90
2023-05-11T11:47:13.085Z,99.90
2023-05-11T11:49:40.457Z,99.90
2023-05-11T11:52:14.836Z,99.90
2023-05-11T11:54:43.851Z,99.90
2023-05-11T11:57:35.683Z,99.90
2023-05-11T12:00:12.937Z,99.90
2023-05-11T12:02:43.452Z,99.90
2023-05-11T12:05:18.368Z,99.90
2023-05-11T12:07:47.893Z,99.90
2023-05-11T12:10:15.499Z,99.90
2023-05-11T12:12:45.840Z,99.90
2023-05-11T12:15:28.018Z,99.90
2023-05-11T12:17:55.298Z,99.90
2023-05-11T12:20:22.486Z,99.90
2023-05-11T12:22:49.444Z,99.90
2023-05-11T12:25:19.536Z,99.90
2023-05-11T12:27:49.830Z,99.90
2023-05-11T12:30:24.679Z,99.90
2023-05-11T12:35:25.822Z,99.90
2023-05-11T12:37:52.911Z,99.90
2023-05-11T12:40:19.813Z,99.90
2023-05-11T12:42:56.239Z,99.90
2023-05-11T12:45:26.073Z,99.90
2023-05-11T12:47:56.595Z,99.90
2023-05-11T12:50:23.410Z,99.90
2023-05-11T12:52:50.373Z,99.90
2023-05-11T12:55:29.748Z,99.90
2023-05-11T12:58:16.154Z,99.90
2023-05-11T13:00:56.304Z,99.90
2023-05-11T13:03:27.631Z,99.90
2023-05-11T13:06:10.185Z,99.90
2023-05-11T13:08:37.606Z,99.90
2023-05-11T13:11:25.390Z,99.90
2023-05-11T13:13:52.662Z,99.90
2023-05-11T13:16:29.288Z,99.90
2023-05-11T13:19:14.133Z,99.90
2023-05-11T13:21:41.003Z,99.90
2023-05-11T13:24:08.030Z,99.90
2023-05-11T13:26:34.799Z,99.90
2023-05-11T13:29:10.904Z,99.90
2023-05-11T13:31:47.874Z,99.90
2023-05-11T13:34:14.744Z,99.90
2023-05-11T13:36:41.619Z,99.90
2023-05-11T13:39:08.313Z,99.90
2023-05-11T13:41:35.021Z,99.90
2023-05-11T13:44:01.806Z,99.90
2023-05-11T13:46:29.042Z,99.90
2023-05-11T13:48:55.863Z,99.90
2023-05-11T13:51:22.938Z,99.90
2023-05-11T13:53:49.618Z,99.90
2023-05-11T13:56:19.403Z,99.90
2023-05-11T13:58:46.232Z,99.90
2023-05-11T14:01:13.001Z,99.90
2023-05-11T14:03:39.937Z,99.90
2023-05-11T14:06:06.731Z,99.90
2023-05-11T14:08:33.597Z,99.90
2023-05-11T14:11:00.577Z,99.90
2023-05-11T14:13:27.460Z,99.90
2023-05-11T14:15:54.266Z,99.90
2023-05-11T14:18:21.498Z,99.90
2023-05-11T14:20:48.401Z,99.90
2023-05-11T14:23:15.174Z,99.90
2023-05-11T14:25:41.918Z,99.50
2023-05-11T14:28:08.645Z,99.90
2023-05-11T14:30:36.104Z,99.90
2023-05-11T14:33:02.859Z,99.90
2023-05-11T14:35:29.597Z,99.90
2023-05-11T14:37:56.903Z,99.90
2023-05-11T14:40:23.721Z,99.90
2023-05-11T14:42:50.405Z,99.90
2023-05-11T14:45:17.266Z,99.90
2023-05-11T14:47:44.159Z,99.90
2023-05-11T14:50:10.899Z,99.90
2023-05-11T14:52:37.597Z,99.20
2023-05-11T14:55:04.608Z,98.70
2023-05-11T14:57:31.490Z,95.10
2023-05-11T15:00:00.113Z,99.10
2023-05-11T15:02:27.635Z,97.70
2023-05-11T15:04:55.141Z,98.60
2023-05-11T15:07:21.902Z,98.30
2023-05-11T15:09:49.718Z,98.60
2023-05-11T15:12:16.413Z,98.00
2023-05-11T15:14:43.127Z,97.20
2023-05-11T15:17:09.835Z,96.30
2023-05-11T15:19:36.575Z,94.70
2023-05-11T15:22:03.428Z,93.60
2023-05-11T15:24:30.403Z,92.50
2023-05-11T15:26:57.979Z,91.30
2023-05-11T15:29:25.435Z,90.00
2023-05-11T15:31:52.592Z,89.20
2023-05-11T15:34:19.505Z,90.00
2023-05-11T15:36:48.526Z,91.30
2023-05-11T15:39:16.413Z,92.20
2023-05-11T15:41:43.773Z,93.40
2023-05-11T15:44:10.522Z,93.60
2023-05-11T15:46:38.224Z,94.80
2023-05-11T15:49:04.934Z,95.70
2023-05-11T15:51:31.979Z,96.60
2023-05-11T15:53:58.706Z,97.80
2023-05-11T15:56:26.412Z,98.70
2023-05-11T15:58:53.191Z,99.40
2023-05-11T16:01:19.950Z,99.80
2023-05-11T16:03:46.964Z,99.90
2023-05-11T16:06:13.802Z,99.90
2023-05-11T16:08:41.595Z,99.90
2023-05-11T16:11:08.307Z,99.90
2023-05-11T16:13:35.291Z,99.90
2023-05-11T16:16:02.115Z,99.90
2023-05-11T16:18:28.933Z,99.90
2023-05-11T16:20:56.409Z,99.90
2023-05-11T16:23:25.311Z,99.90
2023-05-11T16:25:52.202Z,99.90
2023-05-11T16:28:19.262Z,99.90
2023-05-11T16:30:46.059Z,99.90
2023-05-11T16:33:12.875Z,99.90
2023-05-11T16:35:39.598Z,99.90
2023-05-11T16:38:06.743Z,99.90
2023-05-11T16:40:33.455Z,99.90
2023-05-11T16:43:00.125Z,99.90
2023-05-11T16:45:26.906Z,99.90
2023-05-11T16:47:53.758Z,99.90
2023-05-11T16:50:20.808Z,99.90
2023-05-11T16:52:48.656Z,99.90
2023-05-11T16:55:16.078Z,99.90
2023-05-11T16:57:43.961Z,99.90
2023-05-11T17:00:11.441Z,99.90
2023-05-11T17:02:38.343Z,99.90
2023-05-11T17:05:06.509Z,99.90
2023-05-11T17:07:33.765Z,99.90
2023-05-11T17:10:00.564Z,99.90
2023-05-11T17:12:28.683Z,99.90
2023-05-11T17:14:55.525Z,99.90
2023-05-11T17:17:22.716Z,99.90
2023-05-11T17:19:49.667Z,99.90
2023-05-11T17:22:16.402Z,99.90
2023-05-11T17:24:43.141Z,99.90
2023-05-11T17:27:09.845Z,99.90
2023-05-11T17:29:36.600Z,99.90
2023-05-11T17:32:03.618Z,99.90
2023-05-11T17:34:30.599Z,99.90
2023-05-11T17:36:57.456Z,99.90
2023-05-11T17:39:24.305Z,99.90
2023-05-11T17:41:51.227Z,99.90
2023-05-11T17:44:18.099Z,99.90
2023-05-11T17:46:44.883Z,99.90
2023-05-11T17:49:11.638Z,99.90
2023-05-11T17:51:38.363Z,99.90
2023-05-11T17:54:05.204Z,99.90
2023-05-11T17:56:32.216Z,99.90
2023-05-11T17:58:58.895Z,99.90
2023-05-11T18:01:27.367Z,99.90
2023-05-11T18:03:54.448Z,99.90
2023-05-11T18:06:21.263Z,99.90
2023-05-11T18:08:48.653Z,99.90
2023-05-11T18:11:15.431Z,99.90
2023-05-11T18:13:42.131Z,99.90
2023-05-11T18:16:09.125Z,99.90
2023-05-11T18:18:36.995Z,99.90
2023-05-11T18:21:07.489Z,99.90
2023-05-11T18:23:34.381Z,99.90
2023-05-11T18:26:01.262Z,99.90
2023-05-11T18:28:28.231Z,99.90
2023-05-11T18:30:55.032Z,99.90
2023-05-11T18:33:21.939Z,99.90
2023-05-11T18:35:50.918Z,99.90
2023-05-11T18:38:17.907Z,99.90
2023-05-11T18:40:44.941Z,99.90
2023-05-11T18:43:11.714Z,99.90
2023-05-11T18:45:40.825Z,99.90
2023-05-11T18:48:07.600Z,99.90
2023-05-11T18:50:34.426Z,99.90
2023-05-11T18:53:02.066Z,99.90
2023-05-11T18:55:30.912Z,99.90
2023-05-11T18:57:57.964Z,99.90
2023-05-11T19:00:24.742Z,99.90
2023-05-11T19:02:52.062Z,99.90
2023-05-11T19:05:19.434Z,99.90
2023-05-11T19:07:46.390Z,99.90
2023-05-11T19:10:13.218Z,99.90
2023-05-11T19:12:40.249Z,99.90
2023-05-11T19:15:08.347Z,99.90
2023-05-11T19:17:35.114Z,99.90
2023-05-11T19:20:02.148Z,99.90
2023-05-11T19:22:28.903Z,99.90
2023-05-11T19:24:55.597Z,99.90
2023-05-11T19:27:22.582Z,99.90
2023-05-11T19:29:50.628Z,99.90
2023-05-11T19:32:19.202Z,99.90
2023-05-11T19:34:46.099Z,99.90
2023-05-11T19:37:12.856Z,99.90
2023-05-11T19:39:39.540Z,99.90
2023-05-11T19:42:06.887Z,99.90
2023-05-11T19:44:36.450Z,99.90
2023-05-11T19:47:03.298Z,99.90
2023-05-11T19:49:30.061Z,99.90
2023-05-11T19:51:56.791Z,99.90
2023-05-11T19:54:23.561Z,99.90
2023-05-11T19:56:50.299Z,99.90
2023-05-11T19:59:17.024Z,99.90
2023-05-11T20:01:43.862Z,99.90
2023-05-11T20:04:12.845Z,99.90
2023-05-11T20:06:39.961Z,99.90
2023-05-11T20:09:07.234Z,99.90
2023-05-11T20:11:33.956Z,99.90
2023-05-11T20:14:00.876Z,99.90
2023-05-11T20:16:29.507Z,99.90
2023-05-11T20:18:56.900Z,99.90
2023-05-11T20:21:23.683Z,99.90
2023-05-11T20:23:50.533Z,99.90
2023-05-11T20:26:17.243Z,99.90
2023-05-11T20:28:43.913Z,99.90
2023-05-11T20:31:11.170Z,99.90
2023-05-11T20:36:07.959Z,99.90
2023-05-11T20:38:34.670Z,99.90
2023-05-11T20:41:01.372Z,99.90
2023-05-11T20:43:28.277Z,99.90
2023-05-11T20:45:55.222Z,99.90
2023-05-11T20:48:35.859Z,99.90
2023-05-11T20:51:05.725Z,99.90
2023-05-11T20:53:32.862Z,99.90
2023-05-11T20:56:02.451Z,99.90
2023-05-11T20:58:29.980Z,99.90
2023-05-11T21:00:56.930Z,99.90
2023-05-11T21:03:25.266Z,99.90
2023-05-11T21:05:52.157Z,99.90
2023-05-11T21:08:18.837Z,99.90
2023-05-11T21:10:45.612Z,99.90
2023-05-11T21:13:13.305Z,99.90
2023-05-11T21:15:39.976Z,99.90
2023-05-11T21:18:06.956Z,99.90
2023-05-11T21:20:34.125Z,99.90
2023-05-11T21:23:00.936Z,99.90
2023-05-11T21:25:27.665Z,99.90
2023-05-11T21:27:54.405Z,99.90
2023-05-11T21:30:21.512Z,99.90
2023-05-11T21:32:50.442Z,99.90
2023-05-11T21:35:17.491Z,99.90
2023-05-11T21:37:49.142Z,99.90
2023-05-11T21:40:16.571Z,99.90
2023-05-11T21:42:43.468Z,99.90
2023-05-11T21:45:11.925Z,99.90
2023-05-11T21:47:38.796Z,99.90
2023-05-11T21:50:06.857Z,99.90
2023-05-11T21:52:33.513Z,99.90
2023-05-11T21:55:00.220Z,99.90
2023-05-11T21:57:26.864Z,99.90
2023-05-11T21:59:53.568Z,99.90
2023-05-11T22:02:22.785Z,99.90
2023-05-11T22:04:49.747Z,99.90
2023-05-11T22:07:16.518Z,99.90
2023-05-11T22:09:43.215Z,99.90
2023-05-11T22:12:10.042Z,99.90
2023-05-11T22:14:36.984Z,99.90
2023-05-11T22:17:03.867Z,99.90
2023-05-11T22:19:30.663Z,99.90
2023-05-11T22:21:57.448Z,99.90
2023-05-11T22:24:26.914Z,99.90
2023-05-11T22:26:54.358Z,99.90
2023-05-11T22:29:21.763Z,99.90
2023-05-11T22:31:49.232Z,99.90
2023-05-11T22:34:15.978Z,99.90
2023-05-11T22:36:42.796Z,99.90
2023-05-11T22:39:11.232Z,99.90
2023-05-11T22:41:38.140Z,99.90
2023-05-11T22:44:05.157Z,99.90
2023-05-11T22:46:31.891Z,99.90
2023-05-11T22:48:58.747Z,99.90
2023-05-11T22:51:25.532Z,99.90
2023-05-11T22:53:52.271Z,99.90
2023-05-11T22:56:19.037Z,99.90
2023-05-11T22:58:45.717Z,99.90
2023-05-11T23:01:12.479Z,99.90
2023-05-11T23:03:39.514Z,99.90
2023-05-11T23:06:06.526Z,99.90
2023-05-11T23:08:33.353Z,99.90
2023-05-11T23:11:00.165Z,99.90
2023-05-11T23:13:27.512Z,99.90
2023-05-11T23:15:54.176Z,99.90
2023-05-11T23:18:21.192Z,99.90
2023-05-11T23:20:48.377Z,99.90
2023-05-11T23:23:15.064Z,99.90
2023-05-11T23:25:44.917Z,99.90
2023-05-11T23:28:11.689Z,99.90
2023-05-11T23:30:38.449Z,99.90
2023-05-11T23:33:05.209Z,99.90
2023-05-11T23:35:31.965Z,99.90
2023-05-11T23:37:58.788Z,99.90
2023-05-11T23:40:28.638Z,99.90
2023-05-11T23:42:55.447Z,99.90
2023-05-11T23:45:23.371Z,99.90
2023-05-11T23:47:50.209Z,99.90
2023-05-11T23:50:17.174Z,99.90
